createdAt,value
2022-09-20T00:01:07.748Z,73.48
2022-09-20T00:03:38.197Z,73.41
2022-09-20T00:06:07.378Z,73.05
2022-09-20T00:08:35.263Z,73.25
2022-09-20T00:11:03.508Z,73.84
2022-09-20T00:13:31.750Z,73.60
2022-09-20T00:16:00.238Z,73.97
2022-09-20T00:18:28.441Z,73.65
2022-09-20T00:20:57.364Z,73.59
2022-09-20T00:23:25.310Z,72.97
2022-09-20T00:25:57.634Z,72.22
2022-09-20T00:28:25.923Z,72.20
2022-09-20T00:30:54.598Z,72.22
2022-09-20T00:33:22.735Z,72.94
2022-09-20T00:35:49.417Z,72.64
2022-09-20T00:38:18.580Z,72.59
2022-09-20T00:40:46.280Z,72.41
2022-09-20T00:43:16.597Z,72.63
2022-09-20T00:45:48.049Z,72.57
2022-09-20T00:48:22.379Z,72.22
2022-09-20T00:50:55.152Z,72.54
2022-09-20T00:53:28.219Z,72.89
2022-09-20T00:55:59.233Z,72.83
2022-09-20T00:58:29.970Z,72.17
2022-09-20T01:00:58.901Z,72.18
2022-09-20T01:03:31.654Z,72.24
2022-09-20T01:06:02.354Z,71.96
2022-09-20T01:08:33.262Z,72.02
2022-09-20T01:11:01.096Z,72.17
2022-09-20T01:13:28.915Z,72.16
2022-09-20T01:15:58.987Z,72.10
2022-09-20T01:18:27.975Z,71.77
2022-09-20T01:20:56.939Z,72.25
2022-09-20T01:23:48.061Z,72.31
2022-09-20T01:26:56.024Z,72.33
2022-09-20T01:29:44.453Z,72.10
2022-09-20T01:32:14.698Z,71.57
2022-09-20T01:34:47.351Z,71.37
2022-09-20T01:37:20.578Z,71.16
2022-09-20T01:39:56.754Z,70.68
2022-09-20T01:42:32.909Z,71.00
2022-09-20T01:45:06.167Z,70.97
2022-09-20T01:47:39.534Z,71.27
2022-09-20T01:50:23.031Z,71.12
2022-09-20T01:53:06.882Z,71.27
2022-09-20T01:56:06.790Z,71.34
2022-09-20T01:59:24.212Z,71.33
2022-09-20T02:02:14.876Z,71.91
2022-09-20T02:05:11.359Z,72.13
2022-09-20T02:07:56.747Z,72.14
2022-09-20T02:10:47.209Z,71.52
2022-09-20T02:13:29.416Z,72.25
2022-09-20T02:16:20.913Z,72.48
2022-09-20T02:19:18.446Z,72.56
2022-09-20T02:21:52.142Z,72.88
2022-09-20T02:24:29.629Z,72.75
2022-09-20T02:27:10.463Z,72.62
2022-09-20T02:29:47.428Z,72.51
2022-09-20T02:32:34.185Z,72.51
2022-09-20T02:35:36.654Z,71.80
2022-09-20T02:38:19.581Z,71.44
2022-09-20T02:41:01.846Z,71.09
2022-09-20T02:43:36.492Z,71.59
2022-09-20T02:46:11.625Z,71.32
2022-09-20T02:48:46.679Z,70.97
2022-09-20T02:51:22.816Z,71.05
2022-09-20T02:54:00.756Z,71.43
2022-09-20T02:56:35.774Z,71.59
2022-09-20T02:59:10.603Z,71.50
2022-09-20T03:01:48.853Z,71.20
2022-09-20T03:04:32.095Z,71.20
2022-09-20T03:07:06.935Z,71.22
2022-09-20T03:09:43.078Z,71.10
2022-09-20T03:12:27.497Z,71.38
2022-09-20T03:15:06.834Z,71.16
2022-09-20T03:17:48.375Z,70.53
2022-09-20T03:20:31.190Z,70.88
2022-09-20T03:23:11.375Z,71.37
2022-09-20T03:25:59.000Z,71.38
2022-09-20T03:28:39.587Z,71.40
2022-09-20T03:31:24.088Z,71.32
2022-09-20T03:34:03.084Z,71.24
2022-09-20T03:36:49.432Z,71.41
2022-09-20T03:39:40.770Z,71.18
2022-09-20T03:42:20.543Z,70.97
2022-09-20T03:45:17.013Z,70.83
2022-09-20T03:48:00.669Z,70.89
2022-09-20T03:50:46.270Z,70.78
2022-09-20T03:53:32.006Z,70.71
2022-09-20T03:56:22.561Z,70.65
2022-09-20T03:59:12.196Z,70.57
2022-09-20T04:02:05.392Z,70.64
2022-09-20T04:04:41.572Z,70.65
2022-09-20T04:07:20.280Z,70.43
2022-09-20T04:10:02.131Z,70.27
2022-09-20T04:12:36.666Z,70.12
2022-09-20T04:15:20.811Z,70.00
2022-09-20T04:17:55.557Z,70.11
2022-09-20T04:20:31.998Z,70.52
2022-09-20T04:23:06.573Z,70.65
2022-09-20T04:25:43.981Z,70.51
2022-09-20T04:28:18.476Z,70.62
2022-09-20T04:30:46.577Z,70.26
2022-09-20T04:33:21.399Z,70.50
2022-09-20T04:36:19.728Z,70.79
2022-09-20T04:38:54.622Z,71.23
2022-09-20T04:41:43.217Z,70.90
2022-09-20T04:44:32.785Z,71.06
2022-09-20T04:47:21.003Z,70.95
2022-09-20T04:50:24.104Z,70.16
2022-09-20T04:53:19.006Z,70.31
2022-09-20T04:55:56.943Z,71.03
2022-09-20T04:58:39.420Z,71.07
2022-09-20T05:01:39.814Z,71.41
2022-09-20T05:04:59.805Z,71.58
2022-09-20T05:08:21.813Z,71.88
2022-09-20T05:11:42.253Z,71.77
2022-09-20T05:14:26.130Z,71.59
2022-09-20T05:17:14.734Z,71.18
2022-09-20T05:20:01.418Z,71.09
2022-09-20T05:22:57.932Z,70.93
2022-09-20T05:25:56.419Z,70.22
2022-09-20T05:28:31.467Z,70.34
2022-09-20T05:31:03.989Z,70.23
2022-09-20T05:33:40.941Z,70.80
2022-09-20T05:36:18.248Z,70.93
2022-09-20T05:38:50.749Z,70.90
2022-09-20T05:41:24.754Z,71.18
2022-09-20T05:43:59.476Z,71.10
2022-09-20T05:46:36.284Z,70.85
2022-09-20T05:49:13.108Z,71.37
2022-09-20T05:51:58.189Z,71.48
2022-09-20T05:54:44.994Z,71.79
2022-09-20T05:57:25.513Z,71.94
2022-09-20T06:00:02.804Z,71.87
2022-09-20T06:02:42.467Z,72.00
2022-09-20T06:05:16.740Z,71.74
2022-09-20T06:08:02.354Z,70.87
2022-09-20T06:10:47.184Z,70.67
2022-09-20T06:13:33.969Z,71.40
2022-09-20T06:16:04.395Z,71.57
2022-09-20T06:18:37.692Z,71.76
2022-09-20T06:21:19.390Z,72.36
2022-09-20T06:23:47.046Z,71.85
2022-09-20T06:26:18.699Z,72.24
2022-09-20T06:28:50.225Z,71.86
2022-09-20T06:31:18.301Z,71.58
2022-09-20T06:33:51.954Z,70.83
2022-09-20T06:36:55.472Z,70.83
2022-09-20T06:39:50.841Z,70.75
2022-09-20T06:42:18.601Z,71.04
2022-09-20T06:44:47.364Z,71.01
2022-09-20T06:47:16.230Z,70.80
2022-09-20T06:49:46.950Z,71.23
2022-09-20T06:52:17.855Z,71.24
2022-09-20T06:54:46.458Z,71.04
2022-09-20T06:57:16.940Z,71.12
2022-09-20T06:59:45.106Z,71.41
2022-09-20T07:02:12.837Z,71.02
2022-09-20T07:04:40.441Z,70.53
2022-09-20T07:07:09.951Z,70.43
2022-09-20T07:09:38.859Z,70.37
2022-09-20T07:12:12.360Z,70.41
2022-09-20T07:14:39.950Z,70.27
2022-09-20T07:17:07.686Z,70.33
2022-09-20T07:19:36.725Z,69.87
2022-09-20T07:22:04.377Z,69.17
2022-09-20T07:24:32.250Z,68.50
2022-09-20T07:27:03.468Z,67.66
2022-09-20T07:29:31.378Z,66.73
2022-09-20T07:31:59.018Z,66.30
2022-09-20T07:34:27.190Z,66.12
2022-09-20T07:36:54.781Z,65.84
2022-09-20T07:39:22.425Z,65.71
2022-09-20T07:41:51.169Z,65.12
2022-09-20T07:44:24.810Z,64.84
2022-09-20T07:46:53.867Z,64.90
2022-09-20T07:49:21.987Z,65.12
2022-09-20T07:51:49.906Z,65.22
2022-09-20T07:54:18.186Z,65.00
2022-09-20T07:56:46.122Z,64.78
2022-09-20T07:59:14.762Z,64.43
2022-09-20T08:01:44.138Z,64.86
2022-09-20T08:04:12.265Z,64.79
2022-09-20T08:06:41.386Z,65.00
2022-09-20T08:09:11.259Z,64.66
2022-09-20T08:11:40.039Z,64.69
2022-09-20T08:14:09.369Z,64.51
2022-09-20T08:16:40.082Z,64.57
2022-09-20T08:19:11.295Z,63.98
2022-09-20T08:21:39.710Z,64.05
2022-09-20T08:24:07.742Z,63.68
2022-09-20T08:26:37.057Z,62.53
2022-09-20T08:29:06.032Z,60.31
2022-09-20T08:31:36.903Z,59.90
2022-09-20T08:34:06.925Z,59.36
2022-09-20T08:36:38.210Z,57.79
2022-09-20T08:41:56.768Z,46.62
2022-09-20T08:44:34.790Z,46.13
2022-09-20T08:47:09.858Z,47.23
2022-09-20T08:49:40.527Z,48.27
2022-09-20T08:52:17.158Z,45.36
2022-09-20T08:54:44.936Z,43.52
2022-09-20T08:57:16.801Z,42.96
2022-09-20T08:59:44.988Z,43.19
2022-09-20T09:02:17.420Z,38.75
2022-09-20T09:04:46.135Z,38.16
2022-09-20T09:07:19.751Z,40.24
2022-09-20T09:09:49.509Z,43.62
2022-09-20T09:12:22.822Z,46.23
2022-09-20T09:14:55.054Z,48.07
2022-09-20T09:17:27.288Z,49.65
2022-09-20T09:19:57.601Z,50.03
2022-09-20T09:22:36.764Z,50.64
2022-09-20T09:25:10.659Z,51.46
2022-09-20T09:27:53.066Z,51.95
2022-09-20T09:30:23.170Z,52.47
2022-09-20T09:32:51.155Z,52.96
2022-09-20T09:35:31.603Z,52.67
2022-09-20T09:38:01.986Z,52.84
2022-09-20T09:40:31.600Z,53.23
2022-09-20T09:43:01.432Z,53.29
2022-09-20T09:45:32.311Z,52.97
2022-09-20T09:48:01.487Z,53.16
2022-09-20T09:50:31.491Z,52.54
2022-09-20T09:53:03.291Z,52.89
2022-09-20T09:55:52.699Z,54.01
2022-09-20T09:58:32.339Z,53.66
2022-09-20T10:01:04.289Z,54.20
2022-09-20T10:03:54.832Z,54.47
2022-09-20T10:06:30.278Z,54.50
2022-09-20T10:09:17.901Z,55.31
2022-09-20T10:11:58.738Z,55.04
2022-09-20T10:14:43.160Z,55.01
2022-09-20T10:17:26.575Z,55.04
2022-09-20T10:20:28.091Z,55.73
2022-09-20T10:26:06.649Z,55.59
2022-09-20T10:28:50.310Z,55.99
2022-09-20T10:31:32.533Z,56.01
2022-09-20T10:34:28.826Z,55.55
2022-09-20T10:36:59.459Z,55.31
2022-09-20T10:39:32.748Z,54.49
2022-09-20T10:42:34.060Z,52.74
2022-09-20T10:45:11.739Z,53.62
2022-09-20T10:47:49.907Z,53.52
2022-09-20T10:50:29.665Z,55.17
2022-09-20T10:53:10.012Z,54.28
2022-09-20T10:55:47.820Z,54.35
2022-09-20T10:58:46.576Z,55.44
2022-09-20T11:01:24.268Z,55.50
2022-09-20T11:04:12.651Z,56.32
2022-09-20T11:06:51.807Z,54.63
2022-09-20T11:09:24.315Z,54.63
2022-09-20T11:11:58.210Z,54.33
2022-09-20T11:14:33.504Z,52.68
2022-09-20T11:17:08.441Z,50.11
2022-09-20T11:19:48.439Z,46.42
2022-09-20T11:22:22.204Z,40.97
2022-09-20T11:24:53.814Z,38.96
2022-09-20T11:27:26.917Z,38.14
2022-09-20T11:30:06.518Z,38.68
2022-09-20T11:32:42.199Z,41.05
2022-09-20T11:35:25.071Z,43.71
2022-09-20T11:38:03.917Z,46.23
2022-09-20T11:40:36.879Z,47.94
2022-09-20T11:43:07.520Z,50.96
2022-09-20T11:45:40.444Z,54.99
2022-09-20T11:48:11.750Z,57.66
2022-09-20T11:51:01.318Z,62.18
2022-09-20T11:53:43.789Z,64.13
2022-09-20T11:56:17.749Z,68.90
2022-09-20T11:58:48.163Z,70.12
2022-09-20T12:01:28.558Z,70.68
2022-09-20T12:04:20.579Z,72.29
2022-09-20T12:06:48.938Z,72.73
2022-09-20T12:09:26.398Z,72.41
2022-09-20T12:11:54.323Z,73.88
2022-09-20T12:14:26.173Z,75.03
2022-09-20T12:16:56.370Z,74.27
2022-09-20T12:19:39.005Z,73.27
2022-09-20T12:22:29.543Z,69.25
2022-09-20T12:25:38.145Z,68.81
2022-09-20T12:28:13.715Z,68.81
2022-09-20T12:30:41.385Z,71.16
2022-09-20T12:33:20.574Z,70.94
2022-09-20T12:35:54.047Z,69.43
2022-09-20T12:38:50.532Z,67.55
2022-09-20T12:41:27.883Z,67.95
2022-09-20T12:44:00.652Z,67.88
2022-09-20T12:46:34.934Z,69.17
2022-09-20T12:49:50.669Z,70.47
2022-09-20T12:52:38.186Z,72.04
2022-09-20T12:55:10.975Z,72.34
2022-09-20T12:57:40.044Z,74.18
2022-09-20T13:00:09.681Z,72.37
2022-09-20T13:02:58.137Z,69.53
2022-09-20T13:05:38.930Z,68.91
2022-09-20T13:08:15.812Z,69.45
2022-09-20T13:10:50.401Z,70.44
2022-09-20T13:13:33.070Z,70.56
2022-09-20T13:16:05.701Z,71.26
2022-09-20T13:18:35.525Z,71.69
2022-09-20T13:21:07.532Z,71.56
2022-09-20T13:23:46.465Z,71.43
2022-09-20T13:26:16.565Z,71.10
2022-09-20T13:28:51.447Z,72.31
2022-09-20T13:31:27.673Z,71.25
2022-09-20T13:33:55.968Z,70.01
2022-09-20T13:36:29.761Z,70.42
2022-09-20T13:38:58.922Z,70.68
2022-09-20T13:41:32.509Z,70.00
2022-09-20T13:44:01.225Z,69.86
2022-09-20T13:46:31.532Z,70.10
2022-09-20T13:49:10.856Z,67.99
2022-09-20T13:51:39.845Z,67.32
2022-09-20T13:54:25.640Z,68.52
2022-09-20T13:56:54.136Z,69.97
2022-09-20T13:59:22.276Z,69.46
2022-09-20T14:01:52.130Z,68.14
2022-09-20T14:04:22.752Z,65.87
2022-09-20T14:06:53.759Z,66.67
2022-09-20T14:09:30.700Z,68.20
2022-09-20T14:12:00.055Z,68.64
2022-09-20T14:14:29.596Z,67.80
2022-09-20T14:16:58.698Z,69.23
2022-09-20T14:19:32.425Z,68.20
2022-09-20T14:22:05.238Z,67.41
2022-09-20T14:24:35.338Z,66.59
2022-09-20T14:27:16.437Z,66.75
2022-09-20T14:29:45.935Z,65.34
2022-09-20T14:32:37.373Z,63.76
2022-09-20T14:35:08.222Z,64.59
2022-09-20T14:37:44.481Z,65.96
2022-09-20T14:40:22.561Z,66.07
2022-09-20T14:42:54.486Z,66.57
2022-09-20T14:45:25.969Z,68.58
2022-09-20T14:47:57.012Z,68.58
2022-09-20T14:50:27.940Z,66.16
2022-09-20T14:53:26.075Z,66.17
2022-09-20T14:56:08.310Z,66.96
2022-09-20T14:59:05.482Z,66.77
2022-09-20T15:01:33.721Z,64.26
2022-09-20T15:04:09.595Z,62.11
2022-09-20T15:06:38.981Z,61.11
2022-09-20T15:09:07.976Z,61.55
2022-09-20T15:11:35.734Z,60.96
2022-09-20T15:14:03.522Z,61.26
2022-09-20T15:16:31.921Z,62.00
2022-09-20T15:19:00.124Z,61.31
2022-09-20T15:21:28.220Z,61.84
2022-09-20T15:23:55.832Z,61.01
2022-09-20T15:26:24.822Z,61.18
2022-09-20T15:28:52.692Z,61.56
2022-09-20T15:31:21.103Z,62.21
2022-09-20T15:33:48.737Z,62.03
2022-09-20T15:36:16.420Z,62.24
2022-09-20T15:38:43.996Z,61.89
2022-09-20T15:41:11.563Z,60.61
2022-09-20T15:43:43.205Z,61.49
2022-09-20T15:46:19.515Z,62.23
2022-09-20T15:48:47.402Z,62.78
2022-09-20T15:51:16.067Z,63.46
2022-09-20T15:53:46.314Z,63.29
2022-09-20T15:56:19.314Z,63.50
2022-09-20T15:58:50.180Z,63.00
2022-09-20T16:01:19.533Z,61.63
2022-09-20T16:03:48.896Z,60.83
2022-09-20T16:06:16.448Z,60.83
2022-09-20T16:08:44.344Z,60.76
2022-09-20T16:11:17.243Z,60.15
2022-09-20T16:13:48.605Z,60.50
2022-09-20T16:16:17.693Z,60.14
2022-09-20T16:19:03.179Z,59.68
2022-09-20T16:21:31.940Z,60.87
2022-09-20T16:24:00.327Z,60.95
2022-09-20T16:26:31.293Z,60.51
2022-09-20T16:29:00.237Z,60.17
2022-09-20T16:31:34.640Z,59.38
2022-09-20T16:34:03.853Z,59.23
2022-09-20T16:36:31.918Z,58.80
2022-09-20T16:38:59.735Z,58.50
2022-09-20T16:41:29.030Z,58.13
2022-09-20T16:43:57.313Z,58.61
2022-09-20T16:46:28.149Z,58.37
2022-09-20T16:48:56.760Z,58.96
2022-09-20T16:51:26.277Z,58.83
2022-09-20T16:53:55.662Z,59.10
2022-09-20T16:56:25.252Z,59.52
2022-09-20T16:58:53.609Z,60.04
2022-09-20T17:01:21.645Z,59.49
2022-09-20T17:03:51.654Z,59.72
2022-09-20T17:06:19.936Z,59.63
2022-09-20T17:08:48.659Z,59.80
2022-09-20T17:11:17.657Z,59.47
2022-09-20T17:13:47.127Z,59.74
2022-09-20T17:16:17.649Z,60.21
2022-09-20T17:18:45.410Z,60.90
2022-09-20T17:21:16.550Z,61.20
2022-09-20T17:23:50.786Z,61.14
2022-09-20T17:26:21.683Z,61.14
2022-09-20T17:28:51.703Z,61.02
2022-09-20T17:31:22.904Z,60.67
2022-09-20T17:33:50.956Z,60.81
2022-09-20T17:36:21.363Z,60.80
2022-09-20T17:38:55.350Z,60.90
2022-09-20T17:41:23.859Z,60.91
2022-09-20T17:43:55.022Z,60.40
2022-09-20T17:46:26.094Z,60.18
2022-09-20T17:48:55.572Z,60.18
2022-09-20T17:51:26.616Z,60.10
2022-09-20T17:53:55.687Z,60.20
2022-09-20T17:56:28.407Z,60.68
2022-09-20T17:58:56.743Z,61.08
2022-09-20T18:01:25.917Z,61.75
2022-09-20T18:03:54.374Z,61.83
2022-09-20T18:06:25.346Z,61.97
2022-09-20T18:08:55.110Z,62.25
2022-09-20T18:11:24.896Z,62.20
2022-09-20T18:13:52.663Z,62.57
2022-09-20T18:16:20.483Z,62.35
2022-09-20T18:18:49.544Z,62.75
2022-09-20T18:21:18.759Z,62.82
2022-09-20T18:23:48.620Z,63.21
2022-09-20T18:26:23.745Z,63.14
2022-09-20T18:28:56.811Z,62.85
2022-09-20T18:31:26.289Z,62.47
2022-09-20T18:33:57.821Z,62.63
2022-09-20T18:36:27.155Z,63.41
2022-09-20T18:38:57.546Z,62.88
2022-09-20T18:41:27.455Z,62.73
2022-09-20T18:43:55.829Z,63.00
2022-09-20T18:46:24.886Z,62.40
2022-09-20T18:48:53.277Z,62.91
2022-09-20T18:51:21.847Z,63.00
2022-09-20T18:53:49.512Z,63.04
2022-09-20T18:56:26.311Z,63.23
2022-09-20T18:58:55.730Z,63.07
2022-09-20T19:01:49.482Z,63.25
2022-09-20T19:04:35.138Z,63.21
2022-09-20T19:07:15.021Z,63.26
2022-09-20T19:09:50.458Z,63.59
2022-09-20T19:12:27.046Z,63.27
2022-09-20T19:15:22.796Z,63.23
2022-09-20T19:18:08.315Z,63.87
2022-09-20T19:20:42.899Z,65.04
2022-09-20T19:23:29.751Z,65.24
2022-09-20T19:26:08.706Z,64.96
2022-09-20T19:28:38.374Z,65.50
2022-09-20T19:31:06.789Z,65.62
2022-09-20T19:33:34.895Z,65.49
2022-09-20T19:36:03.743Z,65.69
2022-09-20T19:38:43.029Z,65.92
2022-09-20T19:41:27.295Z,65.16
2022-09-20T19:44:19.048Z,65.17
2022-09-20T19:47:01.460Z,65.71
2022-09-20T19:49:40.395Z,65.64
2022-09-20T19:52:11.395Z,65.99
2022-09-20T19:54:42.204Z,65.75
2022-09-20T19:57:20.085Z,65.86
2022-09-20T19:59:50.438Z,66.40
2022-09-20T20:02:19.037Z,66.24
2022-09-20T20:04:47.175Z,67.00
2022-09-20T20:07:28.011Z,67.56
2022-09-20T20:10:04.562Z,67.96
2022-09-20T20:12:35.144Z,67.70
2022-09-20T20:15:15.794Z,68.10
2022-09-20T20:17:55.455Z,68.59
2022-09-20T20:20:30.077Z,68.83
2022-09-20T20:23:39.586Z,69.05
2022-09-20T20:26:10.413Z,69.07
2022-09-20T20:28:39.007Z,69.41
2022-09-20T20:31:12.249Z,69.56
2022-09-20T20:33:40.703Z,69.31
2022-09-20T20:36:08.941Z,69.58
2022-09-20T20:38:37.810Z,69.81
2022-09-20T20:41:07.586Z,69.85
2022-09-20T20:43:38.103Z,70.13
2022-09-20T20:46:09.052Z,69.46
2022-09-20T20:48:37.255Z,69.52
2022-09-20T20:51:06.452Z,69.88
2022-09-20T20:53:36.147Z,70.55
2022-09-20T20:56:07.154Z,70.17
2022-09-20T20:58:36.293Z,70.29
2022-09-20T21:01:10.545Z,70.23
2022-09-20T21:03:38.625Z,70.06
2022-09-20T21:06:06.742Z,69.61
2022-09-20T21:08:36.280Z,69.81
2022-09-20T21:11:06.067Z,69.84
2022-09-20T21:13:34.220Z,69.93
2022-09-20T21:16:11.156Z,69.74
2022-09-20T21:18:40.106Z,70.08
2022-09-20T21:21:15.633Z,70.44
2022-09-20T21:23:44.987Z,70.70
2022-09-20T21:26:15.308Z,69.99
2022-09-20T21:28:44.970Z,70.66
2022-09-20T21:31:14.202Z,71.20
2022-09-20T21:33:43.622Z,71.56
2022-09-20T21:36:13.733Z,72.08
2022-09-20T21:38:42.272Z,72.12
2022-09-20T21:41:11.681Z,71.88
2022-09-20T21:43:41.794Z,71.92
2022-09-20T21:46:16.405Z,71.53
2022-09-20T21:48:44.529Z,71.44
2022-09-20T21:51:13.918Z,71.59
2022-09-20T21:53:41.993Z,72.02
2022-09-20T21:56:11.620Z,72.13
2022-09-20T21:58:39.899Z,72.81
2022-09-20T22:01:11.437Z,73.11
2022-09-20T22:03:42.101Z,73.01
2022-09-20T22:06:12.175Z,73.09
2022-09-20T22:08:41.980Z,72.77
2022-09-20T22:11:14.890Z,72.13
2022-09-20T22:13:43.829Z,72.20
2022-09-20T22:16:13.503Z,71.78
2022-09-20T22:18:44.129Z,71.56
2022-09-20T22:21:14.110Z,70.89
2022-09-20T22:23:42.327Z,70.57
2022-09-20T22:26:11.920Z,70.47
2022-09-20T22:28:39.771Z,70.73
2022-09-20T22:31:09.909Z,70.97
2022-09-20T22:33:43.125Z,70.68
2022-09-20T22:36:12.538Z,71.05
2022-09-20T22:38:40.073Z,71.35
2022-09-20T22:41:07.770Z,71.07
2022-09-20T22:43:36.111Z,71.07
2022-09-20T22:46:04.954Z,71.61
2022-09-20T22:48:33.272Z,71.44
2022-09-20T22:51:03.322Z,71.96
2022-09-20T22:53:31.984Z,72.17
2022-09-20T22:56:04.062Z,71.70
2022-09-20T22:58:33.173Z,71.88
2022-09-20T23:01:05.810Z,72.76
2022-09-20T23:03:33.658Z,72.94
2022-09-20T23:06:03.936Z,73.62
2022-09-20T23:08:33.192Z,74.16
2022-09-20T23:11:02.389Z,74.54
2022-09-20T23:13:30.054Z,74.65
2022-09-20T23:15:58.094Z,74.71
2022-09-20T23:18:26.087Z,74.88
2022-09-20T23:21:02.739Z,74.57
2022-09-20T23:23:31.059Z,74.63
2022-09-20T23:26:07.377Z,74.94
2022-09-20T23:28:35.844Z,74.69
2022-09-20T23:31:05.032Z,74.71
2022-09-20T23:33:33.296Z,74.56
2022-09-20T23:36:06.447Z,75.03
2022-09-20T23:38:34.098Z,75.12
2022-09-20T23:41:03.872Z,75.24
2022-09-20T23:43:31.583Z,75.45
2022-09-20T23:45:59.247Z,75.16
2022-09-20T23:48:27.308Z,74.74
2022-09-20T23:50:55.287Z,75.21
2022-09-20T23:53:24.432Z,75.27
2022-09-20T23:55:52.073Z,75.18
2022-09-20T23:58:19.716Z,75.40
